sensor_id;sensor_type;location;lat;lon;timestamp;P1;durP1;ratioP1;P2;durP2;ratioP2
45011;SDS011;63444;48.148;11.542;2023-02-23T00:03:42;15.63;;;12.37;;
45011;SDS011;63444;48.148;11.542;2023-02-23T00:06:10;14.07;;;11.50;;
45011;SDS011;63444;48.148;11.542;2023-02-23T00:08:36;16.17;;;12.87;;
45011;SDS011;63444;48.148;11.542;2023-02-23T00:11:03;19.57;;;13.50;;
45011;SDS011;63444;48.148;11.542;2023-02-23T00:13:33;16.73;;;12.10;;
45011;SDS011;63444;48.148;11.542;2023-02-23T00:16:08;16.37;;;13.53;;
45011;SDS011;63444;48.148;11.542;2023-02-23T00:18:46;17.67;;;13.60;;
45011;SDS011;63444;48.148;11.542;2023-02-23T00:21:21;15.77;;;12.83;;
45011;SDS011;63444;48.148;11.542;2023-02-23T00:23:49;16.37;;;12.83;;
45011;SDS011;63444;48.148;11.542;2023-02-23T00:26:19;16.93;;;11.93;;
45011;SDS011;63444;48.148;11.542;2023-02-23T00:28:47;16.53;;;12.60;;
45011;SDS011;63444;48.148;11.542;2023-02-23T00:31:14;19.20;;;13.33;;
45011;SDS011;63444;48.148;11.542;2023-02-23T00:33:40;15.87;;;13.37;;
45011;SDS011;63444;48.148;11.542;2023-02-23T00:36:10;16.63;;;12.93;;
45011;SDS011;63444;48.148;11.542;2023-02-23T00:38:38;15.70;;;13.67;;
45011;SDS011;63444;48.148;11.542;2023-02-23T00:41:06;19.27;;;13.40;;
45011;SDS011;63444;48.148;11.542;2023-02-23T00:43:32;15.97;;;12.73;;
45011;SDS011;63444;48.148;11.542;2023-02-23T00:46:11;18.20;;;13.70;;
45011;SDS011;63444;48.148;11.542;2023-02-23T00:48:38;18.70;;;13.80;;
45011;SDS011;63444;48.148;11.542;2023-02-23T00:51:04;17.27;;;14.00;;
45011;SDS011;63444;48.148;11.542;2023-02-23T00:53:31;18.30;;;14.33;;
45011;SDS011;63444;48.148;11.542;2023-02-23T00:55:56;18.03;;;13.83;;
45011;SDS011;63444;48.148;11.542;2023-02-23T00:58:23;19.27;;;15.63;;
45011;SDS011;63444;48.148;11.542;2023-02-23T01:00:49;18.10;;;14.10;;
45011;SDS011;63444;48.148;11.542;2023-02-23T01:03:15;18.03;;;14.10;;
45011;SDS011;63444;48.148;11.542;2023-02-23T01:05:41;15.60;;;13.07;;
45011;SDS011;63444;48.148;11.542;2023-02-23T01:08:08;18.33;;;14.33;;
45011;SDS011;63444;48.148;11.542;2023-02-23T01:10:38;18.97;;;14.17;;
45011;SDS011;63444;48.148;11.542;2023-02-23T01:13:05;16.53;;;13.27;;
45011;SDS011;63444;48.148;11.542;2023-02-23T01:15:31;17.20;;;13.83;;
45011;SDS011;63444;48.148;11.542;2023-02-23T01:17:56;17.60;;;13.70;;
45011;SDS011;63444;48.148;11.542;2023-02-23T01:20:22;16.47;;;12.97;;
45011;SDS011;63444;48.148;11.542;2023-02-23T01:22:48;17.90;;;13.70;;
45011;SDS011;63444;48.148;11.542;2023-02-23T01:25:18;17.77;;;14.13;;
45011;SDS011;63444;48.148;11.542;2023-02-23T01:27:44;17.60;;;14.10;;
45011;SDS011;63444;48.148;11.542;2023-02-23T01:30:11;18.87;;;14.17;;
45011;SDS011;63444;48.148;11.542;2023-02-23T01:32:39;19.80;;;15.33;;
45011;SDS011;63444;48.148;11.542;2023-02-23T01:35:08;19.33;;;15.70;;
45011;SDS011;63444;48.148;11.542;2023-02-23T01:37:35;20.00;;;15.20;;
45011;SDS011;63444;48.148;11.542;2023-02-23T01:40:04;20.17;;;15.40;;
45011;SDS011;63444;48.148;11.542;2023-02-23T01:42:52;19.40;;;14.77;;
45011;SDS011;63444;48.148;11.542;2023-02-23T01:45:28;18.93;;;14.50;;
45011;SDS011;63444;48.148;11.542;2023-02-23T01:48:06;20.60;;;14.97;;
45011;SDS011;63444;48.148;11.542;2023-02-23T01:53:14;20.20;;;15.87;;
45011;SDS011;63444;48.148;11.542;2023-02-23T01:55:45;17.50;;;14.50;;
45011;SDS011;63444;48.148;11.542;2023-02-23T01:58:24;18.93;;;13.80;;
45011;SDS011;63444;48.148;11.542;2023-02-23T02:00:55;16.27;;;14.33;;
45011;SDS011;63444;48.148;11.542;2023-02-23T02:03:56;20.47;;;13.90;;
45011;SDS011;63444;48.148;11.542;2023-02-23T02:06:20;21.03;;;14.00;;
45011;SDS011;63444;48.148;11.542;2023-02-23T02:08:49;19.13;;;14.80;;
45011;SDS011;63444;48.148;11.542;2023-02-23T02:11:19;19.27;;;15.57;;
45011;SDS011;63444;48.148;11.542;2023-02-23T02:14:01;19.83;;;15.23;;
45011;SDS011;63444;48.148;11.542;2023-02-23T02:26:09;21.03;;;15.67;;
45011;SDS011;63444;48.148;11.542;2023-02-23T02:43:06;23.20;;;15.83;;
45011;SDS011;63444;48.148;11.542;2023-02-23T02:50:49;19.33;;;15.70;;
45011;SDS011;63444;48.148;11.542;2023-02-23T02:53:42;22.33;;;16.77;;
45011;SDS011;63444;48.148;11.542;2023-02-23T02:56:06;19.60;;;16.00;;
45011;SDS011;63444;48.148;11.542;2023-02-23T02:58:33;19.43;;;16.90;;
45011;SDS011;63444;48.148;11.542;2023-02-23T03:01:07;21.07;;;16.67;;
45011;SDS011;63444;48.148;11.542;2023-02-23T03:03:55;19.80;;;15.93;;
45011;SDS011;63444;48.148;11.542;2023-02-23T03:06:45;20.77;;;16.80;;
45011;SDS011;63444;48.148;11.542;2023-02-23T03:12:52;24.23;;;17.17;;
45011;SDS011;63444;48.148;11.542;2023-02-23T03:16:22;23.50;;;17.50;;
45011;SDS011;63444;48.148;11.542;2023-02-23T03:19:20;21.47;;;17.10;;
45011;SDS011;63444;48.148;11.542;2023-02-23T03:24:59;20.97;;;16.57;;
45011;SDS011;63444;48.148;11.542;2023-02-23T03:34:33;24.27;;;18.07;;
45011;SDS011;63444;48.148;11.542;2023-02-23T03:37:37;24.30;;;18.17;;
45011;SDS011;63444;48.148;11.542;2023-02-23T03:40:25;22.90;;;18.00;;
45011;SDS011;63444;48.148;11.542;2023-02-23T03:43:16;21.57;;;17.30;;
45011;SDS011;63444;48.148;11.542;2023-02-23T03:46:21;23.23;;;18.80;;
45011;SDS011;63444;48.148;11.542;2023-02-23T03:49:09;22.43;;;16.97;;
45011;SDS011;63444;48.148;11.542;2023-02-23T03:51:58;19.97;;;16.70;;
45011;SDS011;63444;48.148;11.542;2023-02-23T03:54:48;24.03;;;17.77;;
45011;SDS011;63444;48.148;11.542;2023-02-23T03:57:39;24.60;;;17.60;;
45011;SDS011;63444;48.148;11.542;2023-02-23T04:00:29;22.73;;;17.60;;
45011;SDS011;63444;48.148;11.542;2023-02-23T04:03:16;19.57;;;16.63;;
45011;SDS011;63444;48.148;11.542;2023-02-23T04:06:03;22.77;;;18.20;;
45011;SDS011;63444;48.148;11.542;2023-02-23T04:08:49;24.00;;;17.07;;
45011;SDS011;63444;48.148;11.542;2023-02-23T04:11:45;23.07;;;17.20;;
45011;SDS011;63444;48.148;11.542;2023-02-23T04:17:19;19.17;;;16.20;;
45011;SDS011;63444;48.148;11.542;2023-02-23T04:19:50;22.73;;;17.63;;
45011;SDS011;63444;48.148;11.542;2023-02-23T04:22:16;20.93;;;17.67;;
45011;SDS011;63444;48.148;11.542;2023-02-23T04:24:42;20.60;;;16.83;;
45011;SDS011;63444;48.148;11.542;2023-02-23T04:27:10;19.50;;;15.60;;
45011;SDS011;63444;48.148;11.542;2023-02-23T04:29:36;18.50;;;15.20;;
45011;SDS011;63444;48.148;11.542;2023-02-23T04:32:01;21.40;;;16.00;;
45011;SDS011;63444;48.148;11.542;2023-02-23T04:34:27;18.77;;;15.43;;
45011;SDS011;63444;48.148;11.542;2023-02-23T04:36:53;18.20;;;15.33;;
45011;SDS011;63444;48.148;11.542;2023-02-23T04:39:18;22.33;;;16.13;;
45011;SDS011;63444;48.148;11.542;2023-02-23T04:41:44;18.60;;;15.17;;
45011;SDS011;63444;48.148;11.542;2023-02-23T04:44:09;20.37;;;16.10;;
45011;SDS011;63444;48.148;11.542;2023-02-23T04:46:35;18.87;;;15.43;;
45011;SDS011;63444;48.148;11.542;2023-02-23T04:49:01;21.13;;;15.90;;
45011;SDS011;63444;48.148;11.542;2023-02-23T04:51:28;19.63;;;15.63;;
45011;SDS011;63444;48.148;11.542;2023-02-23T04:53:54;19.53;;;14.90;;
45011;SDS011;63444;48.148;11.542;2023-02-23T04:56:20;20.90;;;16.47;;
45011;SDS011;63444;48.148;11.542;2023-02-23T04:58:46;19.00;;;15.40;;
45011;SDS011;63444;48.148;11.542;2023-02-23T05:01:11;24.30;;;16.30;;
45011;SDS011;63444;48.148;11.542;2023-02-23T05:03:37;20.10;;;15.47;;
45011;SDS011;63444;48.148;11.542;2023-02-23T05:06:02;19.27;;;15.30;;
45011;SDS011;63444;48.148;11.542;2023-02-23T05:08:28;21.37;;;15.40;;
45011;SDS011;63444;48.148;11.542;2023-02-23T05:10:55;21.77;;;15.37;;
45011;SDS011;63444;48.148;11.542;2023-02-23T05:13:21;18.80;;;15.77;;
45011;SDS011;63444;48.148;11.542;2023-02-23T05:15:47;17.33;;;14.43;;
45011;SDS011;63444;48.148;11.542;2023-02-23T05:18:12;21.57;;;15.90;;
45011;SDS011;63444;48.148;11.542;2023-02-23T05:20:40;18.50;;;14.27;;
45011;SDS011;63444;48.148;11.542;2023-02-23T05:23:08;22.10;;;15.07;;
45011;SDS011;63444;48.148;11.542;2023-02-23T05:25:36;21.57;;;15.47;;
45011;SDS011;63444;48.148;11.542;2023-02-23T05:28:03;19.13;;;15.23;;
45011;SDS011;63444;48.148;11.542;2023-02-23T05:30:29;18.73;;;15.13;;
45011;SDS011;63444;48.148;11.542;2023-02-23T05:32:55;18.87;;;14.33;;
45011;SDS011;63444;48.148;11.542;2023-02-23T05:35:20;17.97;;;14.20;;
45011;SDS011;63444;48.148;11.542;2023-02-23T05:37:46;17.87;;;14.20;;
45011;SDS011;63444;48.148;11.542;2023-02-23T05:40:12;17.07;;;13.10;;
45011;SDS011;63444;48.148;11.542;2023-02-23T05:42:37;19.90;;;13.60;;
45011;SDS011;63444;48.148;11.542;2023-02-23T05:45:03;17.30;;;13.57;;
45011;SDS011;63444;48.148;11.542;2023-02-23T05:47:30;17.33;;;13.70;;
45011;SDS011;63444;48.148;11.542;2023-02-23T05:49:56;16.47;;;13.20;;
45011;SDS011;63444;48.148;11.542;2023-02-23T05:52:23;16.60;;;13.77;;
45011;SDS011;63444;48.148;11.542;2023-02-23T05:54:48;14.97;;;12.40;;
45011;SDS011;63444;48.148;11.542;2023-02-23T05:57:14;16.43;;;14.07;;
45011;SDS011;63444;48.148;11.542;2023-02-23T05:59:40;16.23;;;12.50;;
45011;SDS011;63444;48.148;11.542;2023-02-23T06:02:06;15.90;;;12.60;;
45011;SDS011;63444;48.148;11.542;2023-02-23T06:04:31;19.43;;;13.23;;
45011;SDS011;63444;48.148;11.542;2023-02-23T06:06:57;18.97;;;13.13;;
45011;SDS011;63444;48.148;11.542;2023-02-23T06:09:23;19.10;;;13.70;;
45011;SDS011;63444;48.148;11.542;2023-02-23T06:11:55;17.40;;;13.60;;
45011;SDS011;63444;48.148;11.542;2023-02-23T06:14:21;18.90;;;14.30;;
45011;SDS011;63444;48.148;11.542;2023-02-23T06:16:47;18.27;;;14.53;;
45011;SDS011;63444;48.148;11.542;2023-02-23T06:19:13;18.87;;;13.83;;
45011;SDS011;63444;48.148;11.542;2023-02-23T06:21:39;17.80;;;13.30;;
45011;SDS011;63444;48.148;11.542;2023-02-23T06:24:05;18.43;;;13.60;;
45011;SDS011;63444;48.148;11.542;2023-02-23T06:26:30;20.43;;;15.13;;
45011;SDS011;63444;48.148;11.542;2023-02-23T06:28:57;19.13;;;14.40;;
45011;SDS011;63444;48.148;11.542;2023-02-23T06:31:22;22.13;;;15.33;;
45011;SDS011;63444;48.148;11.542;2023-02-23T06:33:48;21.73;;;14.97;;
45011;SDS011;63444;48.148;11.542;2023-02-23T06:36:14;19.90;;;15.13;;
45011;SDS011;63444;48.148;11.542;2023-02-23T06:38:40;20.00;;;14.30;;
45011;SDS011;63444;48.148;11.542;2023-02-23T06:41:06;21.70;;;15.33;;
45011;SDS011;63444;48.148;11.542;2023-02-23T06:43:33;18.20;;;14.60;;
45011;SDS011;63444;48.148;11.542;2023-02-23T06:45:59;22.43;;;15.80;;
45011;SDS011;63444;48.148;11.542;2023-02-23T06:48:24;19.83;;;16.10;;
45011;SDS011;63444;48.148;11.542;2023-02-23T06:50:50;20.60;;;14.93;;
45011;SDS011;63444;48.148;11.542;2023-02-23T06:53:16;24.30;;;16.57;;
45011;SDS011;63444;48.148;11.542;2023-02-23T06:55:44;20.17;;;14.93;;
45011;SDS011;63444;48.148;11.542;2023-02-23T06:58:10;22.37;;;15.47;;
45011;SDS011;63444;48.148;11.542;2023-02-23T07:00:35;18.83;;;14.50;;
45011;SDS011;63444;48.148;11.542;2023-02-23T07:03:03;22.93;;;15.70;;
45011;SDS011;63444;48.148;11.542;2023-02-23T07:05:30;18.07;;;14.53;;
45011;SDS011;63444;48.148;11.542;2023-02-23T07:07:55;20.50;;;14.80;;
45011;SDS011;63444;48.148;11.542;2023-02-23T07:10:21;18.57;;;13.90;;
45011;SDS011;63444;48.148;11.542;2023-02-23T07:12:46;24.20;;;15.53;;
45011;SDS011;63444;48.148;11.542;2023-02-23T07:15:12;20.17;;;14.43;;
45011;SDS011;63444;48.148;11.542;2023-02-23T07:17:41;19.80;;;14.40;;
45011;SDS011;63444;48.148;11.542;2023-02-23T07:20:08;19.20;;;14.97;;
45011;SDS011;63444;48.148;11.542;2023-02-23T07:22:34;18.43;;;14.07;;
45011;SDS011;63444;48.148;11.542;2023-02-23T07:25:00;18.67;;;13.70;;
45011;SDS011;63444;48.148;11.542;2023-02-23T07:27:26;18.10;;;13.33;;
45011;SDS011;63444;48.148;11.542;2023-02-23T07:29:52;18.67;;;13.57;;
45011;SDS011;63444;48.148;11.542;2023-02-23T07:32:17;24.27;;;15.53;;
45011;SDS011;63444;48.148;11.542;2023-02-23T07:34:43;21.50;;;14.83;;
45011;SDS011;63444;48.148;11.542;2023-02-23T07:37:09;18.67;;;13.93;;
45011;SDS011;63444;48.148;11.542;2023-02-23T07:39:35;19.00;;;14.27;;
45011;SDS011;63444;48.148;11.542;2023-02-23T07:42:02;19.87;;;13.73;;
45011;SDS011;63444;48.148;11.542;2023-02-23T07:44:28;18.70;;;14.90;;
45011;SDS011;63444;48.148;11.542;2023-02-23T07:46:53;16.90;;;13.47;;
45011;SDS011;63444;48.148;11.542;2023-02-23T07:49:19;19.63;;;13.47;;
45011;SDS011;63444;48.148;11.542;2023-02-23T07:51:45;20.20;;;13.73;;
45011;SDS011;63444;48.148;11.542;2023-02-23T07:54:10;17.10;;;13.10;;
45011;SDS011;63444;48.148;11.542;2023-02-23T07:56:36;19.13;;;15.23;;
45011;SDS011;63444;48.148;11.542;2023-02-23T07:59:02;21.10;;;15.13;;
45011;SDS011;63444;48.148;11.542;2023-02-23T08:01:27;18.87;;;14.47;;
45011;SDS011;63444;48.148;11.542;2023-02-23T08:03:53;19.43;;;14.73;;
45011;SDS011;63444;48.148;11.542;2023-02-23T08:06:20;21.07;;;14.53;;
45011;SDS011;63444;48.148;11.542;2023-02-23T08:08:46;19.17;;;14.57;;
45011;SDS011;63444;48.148;11.542;2023-02-23T08:11:13;21.10;;;15.60;;
45011;SDS011;63444;48.148;11.542;2023-02-23T08:13:39;18.97;;;13.83;;
45011;SDS011;63444;48.148;11.542;2023-02-23T08:16:05;16.93;;;14.07;;
45011;SDS011;63444;48.148;11.542;2023-02-23T08:18:31;20.17;;;15.20;;
45011;SDS011;63444;48.148;11.542;2023-02-23T08:21:00;20.70;;;14.40;;
45011;SDS011;63444;48.148;11.542;2023-02-23T08:23:30;17.67;;;13.67;;
45011;SDS011;63444;48.148;11.542;2023-02-23T08:25:56;24.60;;;15.47;;
45011;SDS011;63444;48.148;11.542;2023-02-23T08:28:23;19.17;;;14.10;;
45011;SDS011;63444;48.148;11.542;2023-02-23T08:30:49;23.27;;;13.67;;
45011;SDS011;63444;48.148;11.542;2023-02-23T08:33:15;20.43;;;15.13;;
45011;SDS011;63444;48.148;11.542;2023-02-23T08:35:40;20.30;;;14.33;;
45011;SDS011;63444;48.148;11.542;2023-02-23T08:38:06;20.23;;;14.43;;
45011;SDS011;63444;48.148;11.542;2023-02-23T08:40:32;20.10;;;15.43;;
45011;SDS011;63444;48.148;11.542;2023-02-23T08:42:57;20.03;;;13.97;;
45011;SDS011;63444;48.148;11.542;2023-02-23T08:45:23;21.30;;;14.73;;
45011;SDS011;63444;48.148;11.542;2023-02-23T08:47:48;22.23;;;15.07;;
45011;SDS011;63444;48.148;11.542;2023-02-23T08:50:14;16.87;;;14.37;;
45011;SDS011;63444;48.148;11.542;2023-02-23T08:52:43;21.80;;;14.00;;
45011;SDS011;63444;48.148;11.542;2023-02-23T08:55:09;19.77;;;13.80;;
45011;SDS011;63444;48.148;11.542;2023-02-23T08:57:35;17.27;;;14.20;;
45011;SDS011;63444;48.148;11.542;2023-02-23T09:00:02;63.67;;;16.00;;
45011;SDS011;63444;48.148;11.542;2023-02-23T09:02:37;39.87;;;16.40;;
45011;SDS011;63444;48.148;11.542;2023-02-23T09:05:04;26.33;;;14.93;;
45011;SDS011;63444;48.148;11.542;2023-02-23T09:07:32;45.93;;;15.30;;
45011;SDS011;63444;48.148;11.542;2023-02-23T09:09:57;25.57;;;13.70;;
45011;SDS011;63444;48.148;11.542;2023-02-23T09:12:23;19.03;;;13.70;;
45011;SDS011;63444;48.148;11.542;2023-02-23T09:14:49;20.77;;;14.27;;
45011;SDS011;63444;48.148;11.542;2023-02-23T09:17:17;16.00;;;12.73;;
45011;SDS011;63444;48.148;11.542;2023-02-23T09:19:43;13.53;;;11.13;;
45011;SDS011;63444;48.148;11.542;2023-02-23T09:22:09;19.83;;;12.77;;
45011;SDS011;63444;48.148;11.542;2023-02-23T09:24:34;21.07;;;12.30;;
45011;SDS011;63444;48.148;11.542;2023-02-23T09:27:00;17.43;;;12.60;;
45011;SDS011;63444;48.148;11.542;2023-02-23T09:29:25;15.00;;;12.07;;
45011;SDS011;63444;48.148;11.542;2023-02-23T09:31:51;15.67;;;11.43;;
45011;SDS011;63444;48.148;11.542;2023-02-23T09:34:17;14.17;;;11.80;;
45011;SDS011;63444;48.148;11.542;2023-02-23T09:36:43;18.23;;;12.73;;
45011;SDS011;63444;48.148;11.542;2023-02-23T09:39:09;17.17;;;11.67;;
45011;SDS011;63444;48.148;11.542;2023-02-23T09:41:45;12.90;;;10.43;;
45011;SDS011;63444;48.148;11.542;2023-02-23T09:49:58;25.23;;;11.10;;
45011;SDS011;63444;48.148;11.542;2023-02-23T09:52:33;14.33;;;10.33;;
45011;SDS011;63444;48.148;11.542;2023-02-23T09:55:04;14.93;;;10.17;;
45011;SDS011;63444;48.148;11.542;2023-02-23T09:57:37;16.23;;;10.43;;
45011;SDS011;63444;48.148;11.542;2023-02-23T10:05:40;16.03;;;10.67;;
45011;SDS011;63444;48.148;11.542;2023-02-23T10:11:13;11.00;;;9.07;;
45011;SDS011;63444;48.148;11.542;2023-02-23T10:22:14;11.93;;;9.63;;
45011;SDS011;63444;48.148;11.542;2023-02-23T10:24:52;11.37;;;8.80;;
45011;SDS011;63444;48.148;11.542;2023-02-23T10:27:31;11.13;;;9.07;;
45011;SDS011;63444;48.148;11.542;2023-02-23T10:30:02;58.60;;;11.13;;
45011;SDS011;63444;48.148;11.542;2023-02-23T10:35:11;10.63;;;7.37;;
45011;SDS011;63444;48.148;11.542;2023-02-23T10:37:37;8.63;;;7.73;;
45011;SDS011;63444;48.148;11.542;2023-02-23T10:40:03;12.27;;;7.67;;
45011;SDS011;63444;48.148;11.542;2023-02-23T10:42:30;9.03;;;7.27;;
45011;SDS011;63444;48.148;11.542;2023-02-23T10:44:57;10.67;;;8.17;;
45011;SDS011;63444;48.148;11.542;2023-02-23T10:47:25;14.40;;;8.60;;
45011;SDS011;63444;48.148;11.542;2023-02-23T10:49:54;14.90;;;8.97;;
45011;SDS011;63444;48.148;11.542;2023-02-23T10:52:22;10.73;;;7.93;;
45011;SDS011;63444;48.148;11.542;2023-02-23T10:54:55;17.03;;;8.60;;
45011;SDS011;63444;48.148;11.542;2023-02-23T10:57:28;10.10;;;7.47;;
45011;SDS011;63444;48.148;11.542;2023-02-23T11:02:40;10.77;;;7.37;;
45011;SDS011;63444;48.148;11.542;2023-02-23T11:05:26;8.70;;;7.07;;
45011;SDS011;63444;48.148;11.542;2023-02-23T11:08:09;9.67;;;7.20;;
45011;SDS011;63444;48.148;11.542;2023-02-23T11:10:43;10.13;;;6.97;;
45011;SDS011;63444;48.148;11.542;2023-02-23T11:13:35;8.57;;;6.87;;
45011;SDS011;63444;48.148;11.542;2023-02-23T11:16:06;19.17;;;8.03;;
45011;SDS011;63444;48.148;11.542;2023-02-23T11:18:38;14.57;;;7.90;;
45011;SDS011;63444;48.148;11.542;2023-02-23T11:21:22;11.63;;;7.10;;
45011;SDS011;63444;48.148;11.542;2023-02-23T11:23:52;7.27;;;6.33;;
45011;SDS011;63444;48.148;11.542;2023-02-23T11:26:22;8.47;;;7.27;;
45011;SDS011;63444;48.148;11.542;2023-02-23T11:28:52;8.63;;;6.37;;
45011;SDS011;63444;48.148;11.542;2023-02-23T11:31:24;12.13;;;7.33;;
45011;SDS011;63444;48.148;11.542;2023-02-23T11:33:56;10.53;;;7.40;;
45011;SDS011;63444;48.148;11.542;2023-02-23T11:38:55;11.03;;;7.90;;
45011;SDS011;63444;48.148;11.542;2023-02-23T11:41:38;11.93;;;7.77;;
45011;SDS011;63444;48.148;11.542;2023-02-23T11:44:04;9.93;;;7.23;;
45011;SDS011;63444;48.148;11.542;2023-02-23T11:46:30;10.70;;;7.87;;
45011;SDS011;63444;48.148;11.542;2023-02-23T11:49:06;11.00;;;6.97;;
45011;SDS011;63444;48.148;11.542;2023-02-23T11:51:39;8.57;;;6.47;;
45011;SDS011;63444;48.148;11.542;2023-02-23T11:54:19;10.47;;;6.50;;
45011;SDS011;63444;48.148;11.542;2023-02-23T11:56:57;8.33;;;6.07;;
45011;SDS011;63444;48.148;11.542;2023-02-23T11:59:30;8.37;;;6.30;;
45011;SDS011;63444;48.148;11.542;2023-02-23T12:02:17;6.90;;;5.63;;
45011;SDS011;63444;48.148;11.542;2023-02-23T12:04:47;7.90;;;6.27;;
45011;SDS011;63444;48.148;11.542;2023-02-23T12:15:58;17.80;;;6.20;;
45011;SDS011;63444;48.148;11.542;2023-02-23T12:18:47;6.50;;;5.80;;
45011;SDS011;63444;48.148;11.542;2023-02-23T12:21:36;6.37;;;5.30;;
45011;SDS011;63444;48.148;11.542;2023-02-23T12:24:08;6.63;;;5.20;;
45011;SDS011;63444;48.148;11.542;2023-02-23T12:26:57;14.40;;;5.20;;
45011;SDS011;63444;48.148;11.542;2023-02-23T12:29:35;5.13;;;4.43;;
45011;SDS011;63444;48.148;11.542;2023-02-23T12:32:13;7.63;;;4.90;;
45011;SDS011;63444;48.148;11.542;2023-02-23T12:34:46;8.17;;;4.80;;
45011;SDS011;63444;48.148;11.542;2023-02-23T12:39:55;6.87;;;4.87;;
45011;SDS011;63444;48.148;11.542;2023-02-23T12:45:04;6.37;;;5.30;;
45011;SDS011;63444;48.148;11.542;2023-02-23T12:53:16;12.20;;;5.10;;
45011;SDS011;63444;48.148;11.542;2023-02-23T13:01:15;6.83;;;5.20;;
45011;SDS011;63444;48.148;11.542;2023-02-23T13:09:37;8.30;;;5.33;;
45011;SDS011;63444;48.148;11.542;2023-02-23T13:26:04;6.83;;;4.40;;
45011;SDS011;63444;48.148;11.542;2023-02-23T13:31:39;6.13;;;4.40;;
45011;SDS011;63444;48.148;11.542;2023-02-23T13:34:09;6.10;;;4.20;;
45011;SDS011;63444;48.148;11.542;2023-02-23T13:36:39;6.07;;;4.33;;
45011;SDS011;63444;48.148;11.542;2023-02-23T13:42:06;6.03;;;4.00;;
45011;SDS011;63444;48.148;11.542;2023-02-23T13:45:01;5.90;;;3.13;;
45011;SDS011;63444;48.148;11.542;2023-02-23T13:47:41;4.60;;;3.50;;
45011;SDS011;63444;48.148;11.542;2023-02-23T13:53:35;6.97;;;3.40;;
45011;SDS011;63444;48.148;11.542;2023-02-23T13:56:21;10.57;;;3.27;;
45011;SDS011;63444;48.148;11.542;2023-02-23T13:58:52;3.37;;;2.70;;
45011;SDS011;63444;48.148;11.542;2023-02-23T14:01:35;3.30;;;2.67;;
45011;SDS011;63444;48.148;11.542;2023-02-23T14:04:04;4.40;;;2.47;;
45011;SDS011;63444;48.148;11.542;2023-02-23T14:06:37;3.77;;;2.83;;
45011;SDS011;63444;48.148;11.542;2023-02-23T14:14:08;6.03;;;2.47;;
45011;SDS011;63444;48.148;11.542;2023-02-23T14:16:40;7.83;;;3.00;;
45011;SDS011;63444;48.148;11.542;2023-02-23T14:19:09;5.43;;;2.77;;
45011;SDS011;63444;48.148;11.542;2023-02-23T14:22:04;3.63;;;2.60;;
45011;SDS011;63444;48.148;11.542;2023-02-23T14:24:34;3.53;;;2.50;;
45011;SDS011;63444;48.148;11.542;2023-02-23T14:27:04;5.00;;;2.30;;
45011;SDS011;63444;48.148;11.542;2023-02-23T14:32:37;6.27;;;2.77;;
45011;SDS011;63444;48.148;11.542;2023-02-23T14:35:04;6.10;;;2.80;;
45011;SDS011;63444;48.148;11.542;2023-02-23T14:37:53;6.10;;;3.00;;
45011;SDS011;63444;48.148;11.542;2023-02-23T14:40:23;6.50;;;2.73;;
45011;SDS011;63444;48.148;11.542;2023-02-23T14:42:56;4.40;;;2.50;;
45011;SDS011;63444;48.148;11.542;2023-02-23T14:45:26;5.57;;;2.80;;
45011;SDS011;63444;48.148;11.542;2023-02-23T14:47:55;5.30;;;2.90;;
45011;SDS011;63444;48.148;11.542;2023-02-23T14:50:29;9.57;;;3.10;;
45011;SDS011;63444;48.148;11.542;2023-02-23T14:52:57;5.17;;;3.00;;
45011;SDS011;63444;48.148;11.542;2023-02-23T14:55:26;3.30;;;2.43;;
45011;SDS011;63444;48.148;11.542;2023-02-23T14:57:54;7.03;;;3.07;;
45011;SDS011;63444;48.148;11.542;2023-02-23T15:00:22;4.83;;;2.97;;
45011;SDS011;63444;48.148;11.542;2023-02-23T15:03:10;3.27;;;2.80;;
45011;SDS011;63444;48.148;11.542;2023-02-23T15:05:42;3.47;;;2.90;;
45011;SDS011;63444;48.148;11.542;2023-02-23T15:08:11;6.27;;;3.10;;
45011;SDS011;63444;48.148;11.542;2023-02-23T15:10:43;4.13;;;2.90;;
45011;SDS011;63444;48.148;11.542;2023-02-23T15:13:24;3.40;;;2.90;;
45011;SDS011;63444;48.148;11.542;2023-02-23T15:16:20;6.43;;;3.03;;
45011;SDS011;63444;48.148;11.542;2023-02-23T15:18:52;8.10;;;3.30;;
45011;SDS011;63444;48.148;11.542;2023-02-23T15:21:21;6.23;;;3.27;;
45011;SDS011;63444;48.148;11.542;2023-02-23T15:23:48;3.80;;;2.87;;
45011;SDS011;63444;48.148;11.542;2023-02-23T15:26:31;3.93;;;3.20;;
45011;SDS011;63444;48.148;11.542;2023-02-23T15:29:15;5.27;;;3.30;;
45011;SDS011;63444;48.148;11.542;2023-02-23T15:31:43;4.47;;;3.23;;
45011;SDS011;63444;48.148;11.542;2023-02-23T15:34:26;5.73;;;4.17;;
45011;SDS011;63444;48.148;11.542;2023-02-23T15:36:56;5.17;;;3.13;;
45011;SDS011;63444;48.148;11.542;2023-02-23T15:39:30;5.83;;;3.00;;
45011;SDS011;63444;48.148;11.542;2023-02-23T15:42:03;4.57;;;2.97;;
45011;SDS011;63444;48.148;11.542;2023-02-23T15:44:33;4.80;;;3.20;;
45011;SDS011;63444;48.148;11.542;2023-02-23T15:47:03;5.10;;;3.07;;
45011;SDS011;63444;48.148;11.542;2023-02-23T15:49:31;4.63;;;3.00;;
45011;SDS011;63444;48.148;11.542;2023-02-23T15:52:02;5.37;;;3.20;;
45011;SDS011;63444;48.148;11.542;2023-02-23T15:54:33;4.73;;;3.43;;
45011;SDS011;63444;48.148;11.542;2023-02-23T15:57:05;5.87;;;3.27;;
45011;SDS011;63444;48.148;11.542;2023-02-23T15:59:38;5.53;;;3.30;;
45011;SDS011;63444;48.148;11.542;2023-02-23T16:02:15;5.77;;;3.67;;
45011;SDS011;63444;48.148;11.542;2023-02-23T16:04:43;4.27;;;3.40;;
45011;SDS011;63444;48.148;11.542;2023-02-23T16:07:23;4.37;;;3.27;;
45011;SDS011;63444;48.148;11.542;2023-02-23T16:09:52;4.00;;;3.20;;
45011;SDS011;63444;48.148;11.542;2023-02-23T16:12:30;4.93;;;3.43;;
45011;SDS011;63444;48.148;11.542;2023-02-23T16:15:12;4.83;;;3.43;;
45011;SDS011;63444;48.148;11.542;2023-02-23T16:17:51;5.93;;;3.23;;
45011;SDS011;63444;48.148;11.542;2023-02-23T16:20:55;4.17;;;3.10;;
45011;SDS011;63444;48.148;11.542;2023-02-23T16:25:52;3.57;;;3.13;;
45011;SDS011;63444;48.148;11.542;2023-02-23T16:28:20;5.90;;;3.40;;
45011;SDS011;63444;48.148;11.542;2023-02-23T16:31:01;4.13;;;3.30;;
45011;SDS011;63444;48.148;11.542;2023-02-23T16:33:30;3.80;;;3.33;;
45011;SDS011;63444;48.148;11.542;2023-02-23T16:38:36;6.63;;;3.67;;
45011;SDS011;63444;48.148;11.542;2023-02-23T16:41:25;4.70;;;3.33;;
45011;SDS011;63444;48.148;11.542;2023-02-23T16:43:53;3.73;;;2.90;;
45011;SDS011;63444;48.148;11.542;2023-02-23T16:46:22;5.93;;;3.50;;
45011;SDS011;63444;48.148;11.542;2023-02-23T16:48:52;6.97;;;3.50;;
45011;SDS011;63444;48.148;11.542;2023-02-23T16:51:19;5.23;;;3.50;;
45011;SDS011;63444;48.148;11.542;2023-02-23T16:53:49;5.57;;;3.30;;
45011;SDS011;63444;48.148;11.542;2023-02-23T16:56:16;7.53;;;3.83;;
45011;SDS011;63444;48.148;11.542;2023-02-23T16:58:45;4.77;;;3.80;;
45011;SDS011;63444;48.148;11.542;2023-02-23T17:01:13;8.73;;;3.47;;
45011;SDS011;63444;48.148;11.542;2023-02-23T17:03:39;3.77;;;3.47;;
45011;SDS011;63444;48.148;11.542;2023-02-23T17:06:06;4.97;;;3.37;;
45011;SDS011;63444;48.148;11.542;2023-02-23T17:08:32;8.53;;;4.00;;
45011;SDS011;63444;48.148;11.542;2023-02-23T17:11:01;4.60;;;3.30;;